sensor_id;sensor_type;location;lat;lon;timestamp;pressure;altitude;pressure_sealevel;temperature;humidity
23016;BME280;11674;52.428;13.584;2023-02-28T00:04:14;102898.34;;;3.87;82.39
23016;BME280;11674;52.428;13.584;2023-02-28T00:09:21;102898.78;;;3.91;82.32
23016;BME280;11674;52.428;13.584;2023-02-28T00:14:29;102897.75;;;3.92;82.31
23016;BME280;11674;52.428;13.584;2023-02-28T00:19:36;102902.78;;;3.88;82.42
23016;BME280;11674;52.428;13.584;2023-02-28T00:24:43;102895.00;;;3.92;82.32
23016;BME280;11674;52.428;13.584;2023-02-28T00:29:50;102902.59;;;3.90;82.44
23016;BME280;11674;52.428;13.584;2023-02-28T00:34:57;102900.88;;;3.89;82.34
23016;BME280;11674;52.428;13.584;2023-02-28T00:40:05;102903.59;;;3.89;82.30
23016;BME280;11674;52.428;13.584;2023-02-28T00:45:12;102902.09;;;3.86;82.27
23016;BME280;11674;52.428;13.584;2023-02-28T00:50:19;102897.66;;;3.85;82.35
23016;BME280;11674;52.428;13.584;2023-02-28T00:55:26;102902.97;;;3.87;82.35
23016;BME280;11674;52.428;13.584;2023-02-28T01:00:33;102904.84;;;3.86;82.28
23016;BME280;11674;52.428;13.584;2023-02-28T01:05:40;102900.81;;;3.82;82.36
23016;BME280;11674;52.428;13.584;2023-02-28T01:10:47;102899.94;;;3.82;82.27
23016;BME280;11674;52.428;13.584;2023-02-28T01:15:55;102897.97;;;3.76;82.22
23016;BME280;11674;52.428;13.584;2023-02-28T01:21:08;102889.03;;;3.67;82.08
23016;BME280;11674;52.428;13.584;2023-02-28T01:26:22;102889.97;;;3.60;82.05
23016;BME280;11674;52.428;13.584;2023-02-28T01:31:29;102885.63;;;3.51;82.08
23016;BME280;11674;52.428;13.584;2023-02-28T01:36:36;102880.63;;;3.40;81.99
23016;BME280;11674;52.428;13.584;2023-02-28T01:41:44;102881.03;;;3.37;82.08
23016;BME280;11674;52.428;13.584;2023-02-28T01:46:52;102879.53;;;3.34;81.96
23016;BME280;11674;52.428;13.584;2023-02-28T01:51:59;102877.16;;;3.31;82.06
23016;BME280;11674;52.428;13.584;2023-02-28T01:57:18;102890.03;;;3.31;82.02
23016;BME280;11674;52.428;13.584;2023-02-28T02:02:26;102888.13;;;3.31;82.05
23016;BME280;11674;52.428;13.584;2023-02-28T02:07:36;102876.31;;;3.31;82.09
23016;BME280;11674;52.428;13.584;2023-02-28T02:18:28;102877.34;;;3.15;81.93
23016;BME280;11674;52.428;13.584;2023-02-28T02:34:48;102868.09;;;2.73;81.67
23016;BME280;11674;52.428;13.584;2023-02-28T02:40:05;102874.41;;;2.59;81.52
23016;BME280;11674;52.428;13.584;2023-02-28T02:50:38;102879.06;;;2.36;81.46
23016;BME280;11674;52.428;13.584;2023-02-28T02:55:47;102880.91;;;2.21;81.49
23016;BME280;11674;52.428;13.584;2023-02-28T03:00:59;102887.88;;;2.09;81.50
23016;BME280;11674;52.428;13.584;2023-02-28T03:06:07;102887.25;;;1.99;81.45
23016;BME280;11674;52.428;13.584;2023-02-28T03:11:14;102884.06;;;1.87;81.40
23016;BME280;11674;52.428;13.584;2023-02-28T03:21:57;102894.81;;;1.66;81.31
23016;BME280;11674;52.428;13.584;2023-02-28T03:27:09;102903.91;;;1.59;81.60
23016;BME280;11674;52.428;13.584;2023-02-28T03:32:28;102899.63;;;1.56;81.70
23016;BME280;11674;52.428;13.584;2023-02-28T03:37:42;102901.53;;;1.56;81.54
23016;BME280;11674;52.428;13.584;2023-02-28T03:42:55;102907.53;;;1.51;81.55
23016;BME280;11674;52.428;13.584;2023-02-28T03:48:12;102909.94;;;1.46;81.34
23016;BME280;11674;52.428;13.584;2023-02-28T03:53:25;102910.16;;;1.37;81.42
23016;BME280;11674;52.428;13.584;2023-02-28T03:58:44;102908.31;;;1.29;81.15
23016;BME280;11674;52.428;13.584;2023-02-28T04:03:54;102906.28;;;1.23;81.25
23016;BME280;11674;52.428;13.584;2023-02-28T04:09:03;102913.13;;;1.19;81.17
23016;BME280;11674;52.428;13.584;2023-02-28T04:14:12;102914.88;;;1.12;81.07
23016;BME280;11674;52.428;13.584;2023-02-28T04:19:19;102919.50;;;1.04;81.24
23016;BME280;11674;52.428;13.584;2023-02-28T04:24:27;102912.34;;;0.95;81.25
23016;BME280;11674;52.428;13.584;2023-02-28T04:29:34;102919.22;;;0.91;81.32
23016;BME280;11674;52.428;13.584;2023-02-28T04:34:41;102920.44;;;0.88;81.40
23016;BME280;11674;52.428;13.584;2023-02-28T04:39:48;102923.81;;;0.82;81.07
23016;BME280;11674;52.428;13.584;2023-02-28T04:44:55;102921.78;;;0.76;81.14
23016;BME280;11674;52.428;13.584;2023-02-28T04:50:02;102919.59;;;0.72;81.16
23016;BME280;11674;52.428;13.584;2023-02-28T04:55:21;102932.56;;;0.70;81.41
23016;BME280;11674;52.428;13.584;2023-02-28T05:00:41;102934.59;;;0.68;81.25
23016;BME280;11674;52.428;13.584;2023-02-28T05:06:08;102932.56;;;0.62;81.28
23016;BME280;11674;52.428;13.584;2023-02-28T05:11:35;102945.88;;;0.57;81.00
23016;BME280;11674;52.428;13.584;2023-02-28T05:17:07;102938.38;;;0.51;80.96
23016;BME280;11674;52.428;13.584;2023-02-28T05:22:28;102939.75;;;0.47;81.15
23016;BME280;11674;52.428;13.584;2023-02-28T05:33:15;102940.59;;;0.39;81.03
23016;BME280;11674;52.428;13.584;2023-02-28T05:38:31;102939.25;;;0.35;80.78
23016;BME280;11674;52.428;13.584;2023-02-28T05:43:38;102951.16;;;0.34;80.99
23016;BME280;11674;52.428;13.584;2023-02-28T05:48:47;102957.16;;;0.38;80.94
23016;BME280;11674;52.428;13.584;2023-02-28T05:53:54;102955.44;;;0.37;81.03
23016;BME280;11674;52.428;13.584;2023-02-28T05:59:01;102960.56;;;0.40;81.03
23016;BME280;11674;52.428;13.584;2023-02-28T06:04:09;102963.44;;;0.38;81.10
23016;BME280;11674;52.428;13.584;2023-02-28T06:09:17;102960.06;;;0.36;80.95
23016;BME280;11674;52.428;13.584;2023-02-28T06:14:24;102966.34;;;0.37;81.08
23016;BME280;11674;52.428;13.584;2023-02-28T06:19:34;102970.09;;;0.36;81.01
23016;BME280;11674;52.428;13.584;2023-02-28T06:24:40;102975.22;;;0.39;80.95
23016;BME280;11674;52.428;13.584;2023-02-28T06:29:47;102976.78;;;0.41;80.98
23016;BME280;11674;52.428;13.584;2023-02-28T06:34:54;102982.72;;;0.45;80.92
23016;BME280;11674;52.428;13.584;2023-02-28T06:40:01;102991.94;;;0.52;81.12
23016;BME280;11674;52.428;13.584;2023-02-28T06:45:15;102992.63;;;0.62;81.22
23016;BME280;11674;52.428;13.584;2023-02-28T06:50:31;102993.16;;;0.73;81.35
23016;BME280;11674;52.428;13.584;2023-02-28T06:55:39;103001.00;;;0.84;81.17
23016;BME280;11674;52.428;13.584;2023-02-28T07:00:51;103000.31;;;0.90;81.43
23016;BME280;11674;52.428;13.584;2023-02-28T07:05:58;103010.34;;;1.06;81.61
23016;BME280;11674;52.428;13.584;2023-02-28T07:11:05;103005.50;;;1.32;81.91
23016;BME280;11674;52.428;13.584;2023-02-28T07:16:12;103009.91;;;1.49;81.98
23016;BME280;11674;52.428;13.584;2023-02-28T07:21:19;103012.91;;;1.70;82.00
23016;BME280;11674;52.428;13.584;2023-02-28T07:26:26;103005.00;;;1.83;81.95
23016;BME280;11674;52.428;13.584;2023-02-28T07:31:33;103012.25;;;1.98;81.83
23016;BME280;11674;52.428;13.584;2023-02-28T07:36:40;103012.00;;;2.16;81.97
23016;BME280;11674;52.428;13.584;2023-02-28T07:41:47;103015.19;;;2.27;81.79
23016;BME280;11674;52.428;13.584;2023-02-28T07:46:59;103014.94;;;2.37;81.82
23016;BME280;11674;52.428;13.584;2023-02-28T07:52:06;103018.59;;;2.52;82.14
23016;BME280;11674;52.428;13.584;2023-02-28T07:57:13;103018.47;;;2.68;82.19
23016;BME280;11674;52.428;13.584;2023-02-28T08:02:20;103016.81;;;2.81;82.28
23016;BME280;11674;52.428;13.584;2023-02-28T08:07:27;103019.25;;;2.99;82.30
23016;BME280;11674;52.428;13.584;2023-02-28T08:12:34;103024.94;;;3.12;82.29
23016;BME280;11674;52.428;13.584;2023-02-28T08:17:41;103013.97;;;3.26;82.51
23016;BME280;11674;52.428;13.584;2023-02-28T08:22:48;103018.81;;;3.39;82.55
23016;BME280;11674;52.428;13.584;2023-02-28T08:27:55;103022.44;;;3.54;82.40
23016;BME280;11674;52.428;13.584;2023-02-28T08:33:02;103014.38;;;3.67;82.47
23016;BME280;11674;52.428;13.584;2023-02-28T08:38:09;103022.81;;;3.80;82.51
23016;BME280;11674;52.428;13.584;2023-02-28T08:43:16;103016.06;;;3.97;82.60
23016;BME280;11674;52.428;13.584;2023-02-28T08:48:24;103018.50;;;4.06;82.32
23016;BME280;11674;52.428;13.584;2023-02-28T08:53:32;103025.88;;;4.20;82.26
23016;BME280;11674;52.428;13.584;2023-02-28T08:58:39;103020.31;;;4.35;82.52
23016;BME280;11674;52.428;13.584;2023-02-28T09:03:48;103018.56;;;4.48;82.51
23016;BME280;11674;52.428;13.584;2023-02-28T09:08:58;103017.69;;;4.62;82.52
23016;BME280;11674;52.428;13.584;2023-02-28T09:14:05;103015.66;;;4.71;82.42
23016;BME280;11674;52.428;13.584;2023-02-28T09:19:12;103019.56;;;4.83;82.50
23016;BME280;11674;52.428;13.584;2023-02-28T09:24:19;103016.28;;;4.94;82.68
23016;BME280;11674;52.428;13.584;2023-02-28T09:29:26;103012.59;;;5.08;82.61
23016;BME280;11674;52.428;13.584;2023-02-28T09:34:33;103018.19;;;5.21;82.62
23016;BME280;11674;52.428;13.584;2023-02-28T09:39:40;103019.16;;;5.34;82.68
23016;BME280;11674;52.428;13.584;2023-02-28T09:44:48;103016.09;;;5.50;82.88
23016;BME280;11674;52.428;13.584;2023-02-28T09:49:57;103018.06;;;5.63;82.84
23016;BME280;11674;52.428;13.584;2023-02-28T09:55:28;103013.25;;;5.71;82.92
23016;BME280;11674;52.428;13.584;2023-02-28T10:00:39;103017.00;;;5.91;82.91
23016;BME280;11674;52.428;13.584;2023-02-28T10:06:14;103017.91;;;6.05;83.09
23016;BME280;11674;52.428;13.584;2023-02-28T10:11:24;103015.41;;;6.10;82.45
23016;BME280;11674;52.428;13.584;2023-02-28T10:22:14;103006.25;;;6.09;82.26
23016;BME280;11674;52.428;13.584;2023-02-28T10:27:25;103013.09;;;6.20;82.86
23016;BME280;11674;52.428;13.584;2023-02-28T10:32:34;103010.38;;;6.33;82.70
23016;BME280;11674;52.428;13.584;2023-02-28T10:37:47;103008.28;;;6.41;82.54
23016;BME280;11674;52.428;13.584;2023-02-28T10:42:56;103004.47;;;6.42;82.68
23016;BME280;11674;52.428;13.584;2023-02-28T10:53:35;102999.41;;;6.52;82.51
23016;BME280;11674;52.428;13.584;2023-02-28T11:04:20;102983.50;;;6.61;82.40
23016;BME280;11674;52.428;13.584;2023-02-28T11:09:35;102977.38;;;6.65;82.51
23016;BME280;11674;52.428;13.584;2023-02-28T11:14:50;102967.84;;;6.81;82.61
23016;BME280;11674;52.428;13.584;2023-02-28T11:20:04;102973.78;;;6.91;82.77
23016;BME280;11674;52.428;13.584;2023-02-28T11:25:37;102957.63;;;7.14;82.57
23016;BME280;11674;52.428;13.584;2023-02-28T11:30:45;102962.75;;;7.10;82.34
23016;BME280;11674;52.428;13.584;2023-02-28T11:35:55;102949.34;;;7.14;82.13
23016;BME280;11674;52.428;13.584;2023-02-28T11:46:39;102961.88;;;7.29;82.60
23016;BME280;11674;52.428;13.584;2023-02-28T11:52:02;102956.97;;;7.38;82.56
23016;BME280;11674;52.428;13.584;2023-02-28T12:23:55;102928.72;;;8.68;81.81
23016;BME280;11674;52.428;13.584;2023-02-28T12:34:27;102926.50;;;9.25;81.33
23016;BME280;11674;52.428;13.584;2023-02-28T12:39:42;102916.59;;;9.54;81.25
23016;BME280;11674;52.428;13.584;2023-02-28T12:44:58;102902.56;;;9.85;80.88
23016;BME280;11674;52.428;13.584;2023-02-28T12:50:07;102897.34;;;9.77;80.31
23016;BME280;11674;52.428;13.584;2023-02-28T12:55:27;102873.09;;;9.72;80.97
23016;BME280;11674;52.428;13.584;2023-02-28T13:00:46;102855.69;;;10.54;82.67
23016;BME280;11674;52.428;13.584;2023-02-28T13:11:47;102857.16;;;10.68;79.74
23016;BME280;11674;52.428;13.584;2023-02-28T13:22:40;102854.63;;;10.89;80.45
23016;BME280;11674;52.428;13.584;2023-02-28T13:27:53;102863.06;;;10.48;80.72
23016;BME280;11674;52.428;13.584;2023-02-28T13:38:34;102850.13;;;10.54;81.82
23016;BME280;11674;52.428;13.584;2023-02-28T13:44:03;102854.66;;;10.25;80.08
23016;BME280;11674;52.428;13.584;2023-02-28T14:00:28;102830.84;;;10.06;80.36
23016;BME280;11674;52.428;13.584;2023-02-28T14:05:38;102832.47;;;10.25;80.28
23016;BME280;11674;52.428;13.584;2023-02-28T14:10:49;102838.28;;;10.24;80.53
23016;BME280;11674;52.428;13.584;2023-02-28T14:31:29;102826.25;;;10.53;78.67
23016;BME280;11674;52.428;13.584;2023-02-28T14:36:42;102825.28;;;10.59;78.46
23016;BME280;11674;52.428;13.584;2023-02-28T14:41:49;102816.47;;;10.50;78.29
23016;BME280;11674;52.428;13.584;2023-02-28T14:46:59;102828.88;;;10.25;78.08
23016;BME280;11674;52.428;13.584;2023-02-28T14:52:12;102822.50;;;10.36;78.21
23016;BME280;11674;52.428;13.584;2023-02-28T14:57:35;102818.91;;;10.06;77.70
23016;BME280;11674;52.428;13.584;2023-02-28T15:02:46;102824.59;;;10.11;78.22
23016;BME280;11674;52.428;13.584;2023-02-28T15:08:14;102821.22;;;9.91;77.97
23016;BME280;11674;52.428;13.584;2023-02-28T15:13:22;102818.88;;;9.76;78.26
23016;BME280;11674;52.428;13.584;2023-02-28T15:24:10;102816.03;;;9.35;77.75
23016;BME280;11674;52.428;13.584;2023-02-28T15:29:23;102816.25;;;9.16;78.04
23016;BME280;11674;52.428;13.584;2023-02-28T15:34:41;102807.09;;;8.79;78.04
23016;BME280;11674;52.428;13.584;2023-02-28T15:39:48;102813.09;;;8.52;78.40
23016;BME280;11674;52.428;13.584;2023-02-28T15:44:55;102807.75;;;8.32;78.63
23016;BME280;11674;52.428;13.584;2023-02-28T15:50:10;102809.09;;;8.23;78.60
23016;BME280;11674;52.428;13.584;2023-02-28T16:00:27;102809.84;;;8.06;78.63
23016;BME280;11674;52.428;13.584;2023-02-28T16:05:34;102814.38;;;7.94;78.40
23016;BME280;11674;52.428;13.584;2023-02-28T16:10:42;102824.91;;;7.79;78.41
23016;BME280;11674;52.428;13.584;2023-02-28T16:15:48;102831.56;;;7.65;78.13
23016;BME280;11674;52.428;13.584;2023-02-28T16:20:55;102831.19;;;7.48;78.13
23016;BME280;11674;52.428;13.584;2023-02-28T16:26:03;102830.19;;;7.36;78.10
23016;BME280;11674;52.428;13.584;2023-02-28T16:31:11;102830.00;;;7.25;77.91
23016;BME280;11674;52.428;13.584;2023-02-28T16:36:21;102829.00;;;7.13;77.93
23016;BME280;11674;52.428;13.584;2023-02-28T16:41:29;102828.19;;;6.99;77.77
23016;BME280;11674;52.428;13.584;2023-02-28T16:46:42;102818.47;;;6.84;77.56
23016;BME280;11674;52.428;13.584;2023-02-28T16:51:49;102827.63;;;6.65;77.68
23016;BME280;11674;52.428;13.584;2023-02-28T16:56:56;102829.75;;;6.50;77.48
23016;BME280;11674;52.428;13.584;2023-02-28T17:02:13;102829.13;;;6.35;77.44
23016;BME280;11674;52.428;13.584;2023-02-28T17:07:21;102840.34;;;6.20;77.38
23016;BME280;11674;52.428;13.584;2023-02-28T17:12:28;102838.66;;;6.06;77.21
23016;BME280;11674;52.428;13.584;2023-02-28T17:17:35;102837.97;;;5.91;77.29
23016;BME280;11674;52.428;13.584;2023-02-28T17:22:42;102837.47;;;5.75;77.30
23016;BME280;11674;52.428;13.584;2023-02-28T17:27:50;102852.91;;;5.63;77.24
23016;BME280;11674;52.428;13.584;2023-02-28T17:32:56;102852.22;;;5.48;77.11
23016;BME280;11674;52.428;13.584;2023-02-28T17:38:03;102853.00;;;5.35;77.16
23016;BME280;11674;52.428;13.584;2023-02-28T17:43:10;102853.81;;;5.23;77.14
23016;BME280;11674;52.428;13.584;2023-02-28T17:48:17;102851.41;;;5.07;76.93
23016;BME280;11674;52.428;13.584;2023-02-28T17:53:25;102853.34;;;4.85;77.05
23016;BME280;11674;52.428;13.584;2023-02-28T17:58:32;102856.81;;;4.66;76.87
23016;BME280;11674;52.428;13.584;2023-02-28T18:03:39;102857.78;;;4.52;77.20
23016;BME280;11674;52.428;13.584;2023-02-28T18:08:47;102857.25;;;4.42;77.02
23016;BME280;11674;52.428;13.584;2023-02-28T18:13:53;102856.56;;;4.34;76.83
23016;BME280;11674;52.428;13.584;2023-02-28T18:19:00;102858.16;;;4.22;76.98
23016;BME280;11674;52.428;13.584;2023-02-28T18:24:08;102857.63;;;4.12;76.80
23016;BME280;11674;52.428;13.584;2023-02-28T18:29:19;102863.41;;;4.02;76.83
23016;BME280;11674;52.428;13.584;2023-02-28T18:34:26;102877.41;;;3.86;76.73
23016;BME280;11674;52.428;13.584;2023-02-28T18:39:36;102881.88;;;3.73;77.06
23016;BME280;11674;52.428;13.584;2023-02-28T18:44:43;102882.22;;;3.63;76.82
23016;BME280;11674;52.428;13.584;2023-02-28T18:49:50;102878.63;;;3.48;76.67
23016;BME280;11674;52.428;13.584;2023-02-28T18:54:57;102884.28;;;3.26;76.51
23016;BME280;11674;52.428;13.584;2023-02-28T19:00:05;102895.50;;;3.02;76.56
23016;BME280;11674;52.428;13.584;2023-02-28T19:05:12;102887.47;;;2.86;76.95
23016;BME280;11674;52.428;13.584;2023-02-28T19:10:19;102886.63;;;2.85;77.31
23016;BME280;11674;52.428;13.584;2023-02-28T19:15:26;102875.69;;;2.85;77.04
23016;BME280;11674;52.428;13.584;2023-02-28T19:20:33;102879.81;;;2.81;76.89
23016;BME280;11674;52.428;13.584;2023-02-28T19:25:41;102881.59;;;2.74;76.94
23016;BME280;11674;52.428;13.584;2023-02-28T19:30:49;102883.84;;;2.71;77.05
23016;BME280;11674;52.428;13.584;2023-02-28T19:35:59;102889.91;;;2.66;76.87
23016;BME280;11674;52.428;13.584;2023-02-28T19:41:09;102887.06;;;2.60;76.96
23016;BME280;11674;52.428;13.584;2023-02-28T19:46:15;102889.50;;;2.55;77.09
23016;BME280;11674;52.428;13.584;2023-02-28T19:51:22;102882.03;;;2.49;77.02
23016;BME280;11674;52.428;13.584;2023-02-28T19:56:29;102881.56;;;2.45;76.77
23016;BME280;11674;52.428;13.584;2023-02-28T20:01:36;102880.31;;;2.33;76.75
23016;BME280;11674;52.428;13.584;2023-02-28T20:06:43;102878.47;;;2.26;76.82
23016;BME280;11674;52.428;13.584;2023-02-28T20:11:50;102877.22;;;2.14;76.99
23016;BME280;11674;52.428;13.584;2023-02-28T20:16:57;102890.59;;;2.09;77.22
23016;BME280;11674;52.428;13.584;2023-02-28T20:22:05;102888.69;;;2.09;77.36
23016;BME280;11674;52.428;13.584;2023-02-28T20:27:11;102882.38;;;2.09;77.25
23016;BME280;11674;52.428;13.584;2023-02-28T20:32:19;102888.03;;;2.07;77.14
23016;BME280;11674;52.428;13.584;2023-02-28T20:37:29;102878.13;;;2.06;77.11
23016;BME280;11674;52.428;13.584;2023-02-28T20:42:36;102878.31;;;2.05;77.18
23016;BME280;11674;52.428;13.584;2023-02-28T20:47:43;102875.91;;;2.02;76.86
23016;BME280;11674;52.428;13.584;2023-02-28T20:52:50;102869.13;;;1.98;76.78
23016;BME280;11674;52.428;13.584;2023-02-28T20:57:57;102866.09;;;1.93;76.83
23016;BME280;11674;52.428;13.584;2023-02-28T21:03:04;102859.44;;;1.87;76.92
23016;BME280;11674;52.428;13.584;2023-02-28T21:08:10;102862.06;;;1.81;76.99
23016;BME280;11674;52.428;13.584;2023-02-28T21:13:18;102866.88;;;1.79;76.96
23016;BME280;11674;52.428;13.584;2023-02-28T21:18:25;102868.47;;;1.73;76.91
23016;BME280;11674;52.428;13.584;2023-02-28T21:23:32;102859.44;;;1.65;76.76
23016;BME280;11674;52.428;13.584;2023-02-28T21:28:40;102866.50;;;1.51;76.74
23016;BME280;11674;52.428;13.584;2023-02-28T21:33:47;102873.09;;;1.42;77.07
23016;BME280;11674;52.428;13.584;2023-02-28T21:38:55;102872.59;;;1.39;77.14
23016;BME280;11674;52.428;13.584;2023-02-28T21:44:03;102870.19;;;1.36;77.23
23016;BME280;11674;52.428;13.584;2023-02-28T21:49:11;102877.03;;;1.32;76.96
23016;BME280;11674;52.428;13.584;2023-02-28T21:54:18;102874.47;;;1.30;77.21
23016;BME280;11674;52.428;13.584;2023-02-28T21:59:26;102880.81;;;1.31;77.26
23016;BME280;11674;52.428;13.584;2023-02-28T22:04:32;102880.16;;;1.29;77.22
23016;BME280;11674;52.428;13.584;2023-02-28T22:09:39;102874.00;;;1.27;77.23
23016;BME280;11674;52.428;13.584;2023-02-28T22:14:46;102882.56;;;1.24;77.16
23016;BME280;11674;52.428;13.584;2023-02-28T22:19:54;102891.81;;;1.23;77.03
23016;BME280;11674;52.428;13.584;2023-02-28T22:25:00;102886.50;;;1.21;77.00
23016;BME280;11674;52.428;13.584;2023-02-28T22:30:08;102892.19;;;1.12;77.00
23016;BME280;11674;52.428;13.584;2023-02-28T22:35:15;102892.19;;;1.04;77.07
23016;BME280;11674;52.428;13.584;2023-02-28T22:40:22;102902.31;;;0.95;77.02
23016;BME280;11674;52.428;13.584;2023-02-28T22:45:30;102902.84;;;0.91;77.02
23016;BME280;11674;52.428;13.584;2023-02-28T22:50:36;102903.34;;;0.86;76.95
23016;BME280;11674;52.428;13.584;2023-02-28T22:55:43;102902.84;;;0.83;77.21
23016;BME280;11674;52.428;13.584;2023-02-28T23:00:51;102907.63;;;0.81;76.97
23016;BME280;11674;52.428;13.584;2023-02-28T23:05:57;102911.41;;;0.80;77.09
23016;BME280;11674;52.428;13.584;2023-02-28T23:11:05;102918.22;;;0.76;77.15
23016;BME280;11674;52.428;13.584;2023-02-28T23:16:11;102929.66;;;0.71;77.16
23016;BME280;11674;52.428;13.584;2023-02-28T23:21:18;102925.94;;;0.56;76.94
23016;BME280;11674;52.428;13.584;2023-02-28T23:26:25;102935.16;;;0.47;77.14
23016;BME280;11674;52.428;13.584;2023-02-28T23:31:33;102937.22;;;0.45;77.15
23016;BME280;11674;52.428;13.584;2023-02-28T23:36:40;102928.81;;;0.47;77.32
23016;BME280;11674;52.428;13.584;2023-02-28T23:41:47;102916.56;;;0.43;77.21
23016;BME280;11674;52.428;13.584;2023-02-28T23:47:00;102917.22;;;0.45;77.25
23016;BME280;11674;52.428;13.584;2023-02-28T23:52:08;102911.09;;;0.43;77.10
23016;BME280;11674;52.428;13.584;2023-02-28T23:57:15;102912.81;;;0.44;77.45
